Terminal Aerodrome Forecast
Issued by NWS Jackson, KY

Home | Current Version | Previous Version | Text Only | Print | Product List | Glossary On
Versions: 1 2 3 4 5 6 7 8 9 10 11 12 13 14 15 16 17 18
000
FTUS43 KJKL 301120
TAFJKL
TAF
KJKL 301120Z 3012/3112 VRB03KT P6SM BKN200
     FM301600 18008G18KT P6SM BKN200
     FM302200 17005KT P6SM BKN120
     FM310300 17005KT P6SM VCTS BKN050CB
     FM310500 18007KT 3SM -TSRA OVC025CB
     FM310900 20006KT 3SM SHRA OVC008=

USA.gov is the U.S. government's official web portal to all federal, state and local government web resources and services.